Pagrindinis puslapis
METAR-TAF:

METAR-TAF

Oro uostai :

Sukhothai, Tailandas

platuma: 17-14-16N, ilguma: 099-49-05E, Aukštis: 55 m

Dabartinis oras

Ataskaita buvo paskelbta 2 valandos ir 17 minutes, ne 10:00 UTC
Vėjas 4 kt iš Šiaurės Vakarų
Temperatūra 32°C
Drėgmė 49%
Slėgis 1009 hPa
Matomumas 10 km arba daugiau
Mažai debesys ne aukštis 2500 ft

METAR: VTPO 151000Z 32004KT 9999 FEW025 32/20 Q1009 NOSIG

Laikas: 19:17 (12:17 UTC)

Prognozė

Ataskaita buvo paskelbta 1 valandą ir 17 minutes, ne 11:00 UTC
Prognozė galioja nuo 15 metu 12 UTC su 16 metu 12 UTC
Vėjas 5 kt iš Šiaurės Vakarų
Matomumas 10 km arba daugiau
Mažai debesys ne aukštis 2500 ft

TAF: VTPO 151100Z 1512/1612 32005KT 9999 FEW025

Orai ataskaitas ir orų prognozės (METAR, TAF).

turimą stotys yra geltonos ir raudonos taškus žemėlapyje.

Perkelti pele per norėdami pamatyti stoties vardą.

Tada spustelėkite, norėdami matyti oro stebėjimo ir prognozės.

Norėdami pakeisti žemėlapį: spustelėkite ant žalios mygtukų su juodo kryžiaus žemyn,; žalią mygtuką su brūkšneliu, jei norite nutolinti; arba žalių rodyklių gretimoms žemėlapius.


METAR-TAF: